createdAt,value
2022-11-30T00:00:36.947Z,27.40
2022-11-30T00:03:04.542Z,27.83
2022-11-30T00:05:31.304Z,26.27
2022-11-30T00:08:01.082Z,26.90
2022-11-30T00:10:27.513Z,25.13
2022-11-30T00:12:54.073Z,26.00
2022-11-30T00:15:20.499Z,25.15
2022-11-30T00:17:47.379Z,23.45
2022-11-30T00:20:15.084Z,23.88
2022-11-30T00:22:42.311Z,23.02
2022-11-30T00:25:08.958Z,21.92
2022-11-30T00:27:35.791Z,22.80
2022-11-30T00:30:02.447Z,21.95
2022-11-30T00:32:29.292Z,21.83
2022-11-30T00:34:55.750Z,22.83
2022-11-30T00:37:22.217Z,21.55
2022-11-30T00:39:48.634Z,22.35
2022-11-30T00:42:15.053Z,21.35
2022-11-30T00:44:41.559Z,21.73
2022-11-30T00:47:08.162Z,20.92
2022-11-30T00:49:34.561Z,21.65
2022-11-30T00:52:01.518Z,20.77
2022-11-30T00:54:28.031Z,20.83
2022-11-30T00:56:54.435Z,21.00
2022-11-30T00:59:20.910Z,23.10
2022-11-30T01:01:47.351Z,22.52
2022-11-30T01:04:13.834Z,20.92
2022-11-30T01:06:40.211Z,22.25
2022-11-30T01:09:06.659Z,21.58
2022-11-30T01:11:33.052Z,22.77
2022-11-30T01:14:00.407Z,22.13
2022-11-30T01:16:30.108Z,22.38
2022-11-30T01:18:56.879Z,22.42
2022-11-30T01:21:25.449Z,21.40
2022-11-30T01:23:52.297Z,21.50
2022-11-30T01:26:19.381Z,21.63
2022-11-30T01:28:50.572Z,21.25
2022-11-30T01:31:17.242Z,22.15
2022-11-30T01:33:43.786Z,21.58
2022-11-30T01:36:15.661Z,21.35
2022-11-30T01:38:47.120Z,22.33
2022-11-30T01:41:16.728Z,21.23
2022-11-30T01:43:49.308Z,21.67
2022-11-30T01:49:07.542Z,22.63
2022-11-30T01:51:38.450Z,20.75
2022-11-30T01:54:08.522Z,21.70
2022-11-30T01:56:34.986Z,23.08
2022-11-30T01:59:01.477Z,21.85
2022-11-30T02:01:28.018Z,21.02
2022-11-30T02:04:03.846Z,21.45
2022-11-30T02:06:30.232Z,20.90
2022-11-30T02:08:56.694Z,20.20
2022-11-30T02:11:24.236Z,21.88
2022-11-30T02:14:23.876Z,19.65
2022-11-30T02:16:53.066Z,21.40
2022-11-30T02:19:39.742Z,20.33
2022-11-30T02:22:24.561Z,18.45
2022-11-30T02:25:08.756Z,19.20
2022-11-30T02:27:41.268Z,19.10
2022-11-30T02:32:38.760Z,18.90
2022-11-30T02:35:05.901Z,18.55
2022-11-30T02:37:33.392Z,17.67
2022-11-30T02:39:59.807Z,17.10
2022-11-30T02:42:26.301Z,17.13
2022-11-30T02:44:53.500Z,16.73
2022-11-30T02:47:41.598Z,14.65
2022-11-30T02:50:13.406Z,13.80
2022-11-30T02:52:39.926Z,13.82
2022-11-30T02:55:09.164Z,12.38
2022-11-30T02:57:35.850Z,12.00
2022-11-30T03:00:06.884Z,12.07
2022-11-30T03:02:33.563Z,12.07
2022-11-30T03:05:00.090Z,11.32
2022-11-30T03:07:26.520Z,10.57
2022-11-30T03:09:53.054Z,10.77
2022-11-30T03:12:19.472Z,10.07
2022-11-30T03:14:46.103Z,10.55
2022-11-30T03:17:12.668Z,10.80
2022-11-30T03:19:39.088Z,10.38
2022-11-30T03:22:05.556Z,9.90
2022-11-30T03:24:31.909Z,10.32
2022-11-30T03:26:58.333Z,10.05
2022-11-30T03:29:24.774Z,9.45
2022-11-30T03:31:51.265Z,9.30
2022-11-30T03:34:17.650Z,9.27
2022-11-30T03:36:44.120Z,9.13
2022-11-30T03:39:10.602Z,8.57
2022-11-30T03:41:37.057Z,9.52
2022-11-30T03:44:03.438Z,8.68
2022-11-30T03:46:29.912Z,9.40
2022-11-30T03:48:56.399Z,8.60
2022-11-30T03:51:22.891Z,9.00
2022-11-30T03:53:49.457Z,9.23
2022-11-30T03:56:16.751Z,8.32
2022-11-30T03:58:43.168Z,9.35
2022-11-30T04:01:15.168Z,9.13
2022-11-30T04:03:41.811Z,9.18
2022-11-30T04:06:09.550Z,8.95
2022-11-30T04:08:37.339Z,9.50
2022-11-30T04:11:05.182Z,9.35
2022-11-30T04:13:32.694Z,9.23
2022-11-30T04:15:59.298Z,9.43
2022-11-30T04:18:27.200Z,9.20
2022-11-30T04:20:55.005Z,8.95
2022-11-30T04:23:22.632Z,9.50
2022-11-30T04:25:49.271Z,9.60
2022-11-30T04:28:16.684Z,8.93
2022-11-30T04:30:43.674Z,9.27
2022-11-30T04:33:10.155Z,9.60
2022-11-30T04:35:45.823Z,9.38
2022-11-30T04:38:12.309Z,8.88
2022-11-30T04:40:40.524Z,9.35
2022-11-30T04:43:07.250Z,10.05
2022-11-30T04:45:35.598Z,9.02
2022-11-30T04:48:02.710Z,9.88
2022-11-30T04:50:29.166Z,9.43
2022-11-30T04:52:55.631Z,8.85
2022-11-30T04:55:21.993Z,9.63
2022-11-30T04:57:48.935Z,9.10
2022-11-30T05:00:16.960Z,8.95
2022-11-30T05:02:50.567Z,9.20
2022-11-30T05:05:18.768Z,9.93
2022-11-30T05:07:49.675Z,9.45
2022-11-30T05:10:18.543Z,9.77
2022-11-30T05:12:45.234Z,9.48
2022-11-30T05:15:11.646Z,9.30
2022-11-30T05:17:38.103Z,8.70
2022-11-30T05:20:05.142Z,8.52
2022-11-30T05:22:31.611Z,8.80
2022-11-30T05:24:57.984Z,9.35
2022-11-30T05:27:24.343Z,9.18
2022-11-30T05:29:50.745Z,9.55
2022-11-30T05:32:17.138Z,8.52
2022-11-30T05:34:50.784Z,8.73
2022-11-30T05:37:18.498Z,8.43
2022-11-30T05:39:44.907Z,9.00
2022-11-30T05:42:11.321Z,8.45
2022-11-30T05:44:37.715Z,8.32
2022-11-30T05:47:04.319Z,8.63
2022-11-30T05:49:30.728Z,8.68
2022-11-30T05:51:57.163Z,8.85
2022-11-30T05:54:23.554Z,7.97
2022-11-30T05:56:54.401Z,9.30
2022-11-30T05:59:22.902Z,8.30
2022-11-30T06:01:52.003Z,9.52
2022-11-30T06:04:18.596Z,8.27
2022-11-30T06:06:45.006Z,7.82
2022-11-30T06:09:11.442Z,7.88
2022-11-30T06:11:37.810Z,8.10
2022-11-30T06:14:04.325Z,7.75
2022-11-30T06:16:30.723Z,9.20
2022-11-30T06:18:57.141Z,9.45
2022-11-30T06:21:24.921Z,11.57
2022-11-30T06:23:52.081Z,15.32
2022-11-30T06:26:18.440Z,17.40
2022-11-30T06:28:48.217Z,16.92
2022-11-30T06:31:16.123Z,18.00
2022-11-30T06:33:42.662Z,19.90
2022-11-30T06:36:09.400Z,22.05
2022-11-30T06:38:35.843Z,21.70
2022-11-30T06:41:12.439Z,21.52
2022-11-30T06:43:39.341Z,23.10
2022-11-30T06:46:06.961Z,23.73
2022-11-30T06:48:34.450Z,24.27
2022-11-30T06:51:01.228Z,23.08
2022-11-30T06:53:27.672Z,24.98
2022-11-30T06:55:54.181Z,23.05
2022-11-30T06:58:20.636Z,23.27
2022-11-30T07:00:47.415Z,25.27
2022-11-30T07:03:14.093Z,25.52
2022-11-30T07:05:42.911Z,26.15
2022-11-30T07:08:10.406Z,27.25
2022-11-30T07:10:41.116Z,25.15
2022-11-30T07:13:12.057Z,25.67
2022-11-30T07:15:39.638Z,25.02
2022-11-30T07:18:06.163Z,27.05
2022-11-30T07:20:32.929Z,27.23
2022-11-30T07:23:19.264Z,31.02
2022-11-30T07:26:04.419Z,26.20
2022-11-30T07:28:30.796Z,25.15
2022-11-30T07:30:57.145Z,26.30
2022-11-30T07:33:23.575Z,27.95
2022-11-30T07:35:49.970Z,23.75
2022-11-30T07:38:19.755Z,26.15
2022-11-30T07:40:46.151Z,23.90
2022-11-30T07:43:12.524Z,24.38
2022-11-30T07:45:38.978Z,24.90
2022-11-30T07:48:05.491Z,24.40
2022-11-30T07:50:31.992Z,26.88
2022-11-30T07:52:58.573Z,24.83
2022-11-30T07:55:25.031Z,26.42
2022-11-30T07:57:51.466Z,25.63
2022-11-30T08:00:17.887Z,27.30
2022-11-30T08:02:44.256Z,26.35
2022-11-30T08:05:12.112Z,25.38
2022-11-30T08:07:38.593Z,25.23
2022-11-30T08:10:05.832Z,24.73
2022-11-30T08:12:32.454Z,26.17
2022-11-30T08:15:19.498Z,25.35
2022-11-30T08:17:45.553Z,24.88
2022-11-30T08:20:12.188Z,27.27
2022-11-30T08:22:38.581Z,26.02
2022-11-30T08:25:05.560Z,26.27
2022-11-30T08:27:32.061Z,27.65
2022-11-30T08:29:58.502Z,29.23
2022-11-30T08:32:24.973Z,29.70
2022-11-30T08:34:51.385Z,28.13
2022-11-30T08:37:17.790Z,27.55
2022-11-30T08:39:44.210Z,27.48
2022-11-30T08:42:10.639Z,29.00
2022-11-30T08:44:37.009Z,28.15
2022-11-30T08:47:03.520Z,29.83
2022-11-30T08:49:30.858Z,29.90
2022-11-30T08:54:45.910Z,29.63
2022-11-30T08:57:13.189Z,30.17
2022-11-30T08:59:39.605Z,30.17
2022-11-30T09:02:06.351Z,32.17
2022-11-30T09:04:32.925Z,31.80
2022-11-30T09:07:00.822Z,31.83
2022-11-30T09:09:27.457Z,32.60
2022-11-30T09:11:53.952Z,33.60
2022-11-30T09:14:20.402Z,33.65
2022-11-30T09:16:46.859Z,33.83
2022-11-30T09:19:13.257Z,34.35
2022-11-30T09:21:39.829Z,36.13
2022-11-30T09:24:06.381Z,35.42
2022-11-30T09:26:32.870Z,36.03
2022-11-30T09:29:00.090Z,35.53
2022-11-30T09:31:26.998Z,37.97
2022-11-30T09:33:55.778Z,36.00
2022-11-30T09:36:23.775Z,34.28
2022-11-30T09:38:50.150Z,33.88
2022-11-30T09:41:28.589Z,33.72
2022-11-30T09:44:07.044Z,33.65
2022-11-30T09:46:50.145Z,33.30
2022-11-30T09:49:24.467Z,31.25
2022-11-30T09:51:54.943Z,31.27
2022-11-30T09:54:35.369Z,31.60
2022-11-30T09:57:15.861Z,30.73
2022-11-30T09:59:51.521Z,30.85
2022-11-30T10:02:18.594Z,30.02
2022-11-30T10:04:45.833Z,30.33
2022-11-30T10:07:38.940Z,30.92
2022-11-30T10:13:19.833Z,29.33
2022-11-30T10:16:24.545Z,28.17
2022-11-30T10:19:18.573Z,27.73
2022-11-30T10:21:56.451Z,25.67
2022-11-30T10:24:38.788Z,27.13
2022-11-30T10:27:18.093Z,27.98
2022-11-30T10:29:44.941Z,27.50
2022-11-30T10:32:20.441Z,26.80
2022-11-30T10:34:55.505Z,26.52
2022-11-30T10:37:25.165Z,26.63
2022-11-30T10:40:01.050Z,26.65
2022-11-30T10:42:32.248Z,27.80
2022-11-30T10:45:03.924Z,27.67
2022-11-30T10:47:36.619Z,27.53
2022-11-30T10:50:05.852Z,27.80
2022-11-30T10:52:41.165Z,28.30
2022-11-30T10:55:23.088Z,28.05
2022-11-30T10:57:54.092Z,29.20
2022-11-30T11:00:20.844Z,28.50
2022-11-30T11:02:49.628Z,27.45
2022-11-30T11:05:21.152Z,29.02
2022-11-30T11:08:05.780Z,28.55
2022-11-30T11:10:44.196Z,29.67
2022-11-30T11:13:38.347Z,28.23
2022-11-30T11:16:06.998Z,29.92
2022-11-30T11:18:34.796Z,29.65
2022-11-30T11:21:06.256Z,30.60
2022-11-30T11:23:41.171Z,30.42
2022-11-30T11:26:16.201Z,31.17
2022-11-30T11:28:49.854Z,32.28
2022-11-30T11:31:34.351Z,32.53
2022-11-30T11:34:01.018Z,31.70
2022-11-30T11:36:30.055Z,32.15
2022-11-30T11:38:57.060Z,31.92
2022-11-30T11:41:27.881Z,31.98
2022-11-30T11:44:08.898Z,32.67
2022-11-30T11:46:37.775Z,35.13
2022-11-30T11:49:18.635Z,35.83
2022-11-30T11:51:45.734Z,34.72
2022-11-30T11:54:19.045Z,33.78
2022-11-30T11:56:46.320Z,33.70
2022-11-30T11:59:23.021Z,33.50
2022-11-30T12:01:59.051Z,34.83
2022-11-30T12:04:32.929Z,35.28
2022-11-30T12:07:02.831Z,37.78
2022-11-30T12:09:34.011Z,36.90
2022-11-30T12:12:00.465Z,37.90
2022-11-30T12:14:27.756Z,35.17
2022-11-30T12:17:09.517Z,34.70
2022-11-30T12:20:03.848Z,38.63
2022-11-30T12:22:45.748Z,35.70
2022-11-30T12:25:20.181Z,36.07
2022-11-30T12:28:11.670Z,36.78
2022-11-30T12:30:43.846Z,37.22
2022-11-30T12:33:25.321Z,37.40
2022-11-30T12:36:11.072Z,36.22
2022-11-30T12:38:58.837Z,34.97
2022-11-30T12:41:40.514Z,36.47
2022-11-30T12:44:28.968Z,34.83
2022-11-30T12:46:58.508Z,34.03
2022-11-30T12:50:04.464Z,35.20
2022-11-30T12:52:53.301Z,36.55
2022-11-30T12:55:44.567Z,36.03
2022-11-30T12:58:34.026Z,34.60
2022-11-30T13:01:20.184Z,33.70
2022-11-30T13:03:53.725Z,34.90
2022-11-30T13:06:22.044Z,36.60
2022-11-30T13:08:53.411Z,36.83
2022-11-30T13:11:29.351Z,37.72
2022-11-30T13:13:57.482Z,37.40
2022-11-30T13:16:24.897Z,39.10
2022-11-30T13:18:52.972Z,37.10
2022-11-30T13:21:28.799Z,37.35
2022-11-30T13:24:02.361Z,38.20
2022-11-30T13:26:42.948Z,38.40
2022-11-30T13:29:24.310Z,36.30
2022-11-30T13:31:53.751Z,37.83
2022-11-30T13:34:27.197Z,35.97
2022-11-30T13:37:17.192Z,36.60
2022-11-30T13:39:53.666Z,36.35
2022-11-30T13:42:32.247Z,36.42
2022-11-30T13:45:22.178Z,36.35
2022-11-30T13:47:50.769Z,36.90
2022-11-30T13:50:32.431Z,36.63
2022-11-30T13:52:58.995Z,38.65
2022-11-30T13:55:51.174Z,37.80
2022-11-30T13:58:22.093Z,36.53
2022-11-30T14:01:07.262Z,38.20
2022-11-30T14:03:34.794Z,36.63
2022-11-30T14:06:05.899Z,37.95
2022-11-30T14:08:37.338Z,36.85
2022-11-30T14:11:20.920Z,38.65
2022-11-30T14:13:47.357Z,38.30
2022-11-30T14:16:29.805Z,39.25
2022-11-30T14:18:57.004Z,38.70
2022-11-30T14:21:31.884Z,40.33
2022-11-30T14:24:05.620Z,44.88
2022-11-30T14:26:36.410Z,41.38
2022-11-30T14:29:08.744Z,43.70
2022-11-30T14:31:40.674Z,42.55
2022-11-30T14:34:16.859Z,41.00
2022-11-30T14:36:52.060Z,42.20
2022-11-30T14:39:26.047Z,43.33
2022-11-30T14:41:53.040Z,44.35
2022-11-30T14:44:19.451Z,45.92
2022-11-30T14:46:45.877Z,44.75
2022-11-30T14:49:14.333Z,46.22
2022-11-30T14:51:47.515Z,46.38
2022-11-30T14:54:33.792Z,45.20
2022-11-30T14:57:21.319Z,56.08
2022-11-30T14:59:50.681Z,46.50
2022-11-30T15:02:22.837Z,45.08
2022-11-30T15:04:50.939Z,35.13
2022-11-30T15:07:17.785Z,45.25
2022-11-30T15:09:46.924Z,47.80
2022-11-30T15:12:24.251Z,46.60
2022-11-30T15:15:26.305Z,45.10
2022-11-30T15:17:53.967Z,51.63
2022-11-30T15:20:46.716Z,52.47
2022-11-30T15:23:14.126Z,52.10
2022-11-30T15:25:45.665Z,48.88
2022-11-30T15:28:16.871Z,48.45
2022-11-30T15:30:45.080Z,48.80
2022-11-30T15:33:22.756Z,48.20
2022-11-30T15:36:15.956Z,51.05
2022-11-30T15:38:38.255Z,50.33
2022-11-30T15:41:07.708Z,49.42
2022-11-30T15:43:38.428Z,51.63
2022-11-30T15:46:05.596Z,48.17
2022-11-30T15:48:34.627Z,49.35
2022-11-30T15:51:01.276Z,47.67
2022-11-30T15:53:35.676Z,47.65
2022-11-30T15:56:07.489Z,47.22
2022-11-30T15:58:37.332Z,45.72
2022-11-30T16:01:05.636Z,45.88
2022-11-30T16:03:33.919Z,44.35
2022-11-30T16:06:04.753Z,48.42
2022-11-30T16:08:31.279Z,45.50
2022-11-30T16:10:57.679Z,46.90
2022-11-30T16:13:24.280Z,44.85
2022-11-30T16:15:51.557Z,44.90
2022-11-30T16:18:22.151Z,45.15
2022-11-30T16:20:53.267Z,44.45
2022-11-30T16:23:20.459Z,42.90
2022-11-30T16:25:48.147Z,44.85
2022-11-30T16:28:16.303Z,44.25
2022-11-30T16:30:43.499Z,44.42
2022-11-30T16:33:14.072Z,47.92
2022-11-30T16:35:53.798Z,50.60
2022-11-30T16:38:20.222Z,44.13
2022-11-30T16:40:46.678Z,46.25
2022-11-30T16:43:13.505Z,45.95
2022-11-30T16:45:40.999Z,47.45
2022-11-30T16:48:07.557Z,51.00
2022-11-30T16:50:34.772Z,51.33
2022-11-30T16:53:02.127Z,48.47
2022-11-30T16:55:31.255Z,47.40
2022-11-30T16:57:58.490Z,48.13
2022-11-30T17:00:24.860Z,45.67
2022-11-30T17:02:58.188Z,45.70
2022-11-30T17:05:25.542Z,48.22
2022-11-30T17:07:51.962Z,47.00
2022-11-30T17:10:19.168Z,46.53
2022-11-30T17:12:45.883Z,45.85
2022-11-30T17:15:20.973Z,45.25
2022-11-30T17:17:47.791Z,45.70
2022-11-30T17:20:15.162Z,42.33
2022-11-30T17:22:42.078Z,44.35
2022-11-30T17:25:13.752Z,44.58
2022-11-30T17:27:40.130Z,49.67
2022-11-30T17:30:07.211Z,48.75
2022-11-30T17:32:33.914Z,51.40
2022-11-30T17:35:00.388Z,48.60
2022-11-30T17:37:26.799Z,49.10
2022-11-30T17:39:53.188Z,47.47
2022-11-30T17:42:19.561Z,48.90
2022-11-30T17:44:46.331Z,50.35
2022-11-30T17:47:13.108Z,49.38
2022-11-30T17:49:40.364Z,49.60
2022-11-30T17:52:06.736Z,49.78
2022-11-30T17:54:33.107Z,49.90
2022-11-30T17:56:59.670Z,55.65
2022-11-30T17:59:26.034Z,49.45
2022-11-30T18:01:52.474Z,53.03
2022-11-30T18:04:18.926Z,51.40
2022-11-30T18:06:45.319Z,50.88
2022-11-30T18:09:12.317Z,51.92
2022-11-30T18:11:38.814Z,54.28
2022-11-30T18:14:05.185Z,55.90
2022-11-30T18:16:36.285Z,52.63
2022-11-30T18:19:07.388Z,46.20
2022-11-30T18:21:33.789Z,53.53
2022-11-30T18:24:00.186Z,53.65
2022-11-30T18:26:27.310Z,49.95
2022-11-30T18:28:55.283Z,49.75
2022-11-30T18:31:22.244Z,47.13
2022-11-30T18:33:49.035Z,47.58
2022-11-30T18:36:15.490Z,48.72
2022-11-30T18:38:41.864Z,50.83
2022-11-30T18:41:08.315Z,48.03
2022-11-30T18:43:34.763Z,52.53
2022-11-30T18:46:09.054Z,49.75
2022-11-30T18:48:36.171Z,50.20
2022-11-30T18:51:30.293Z,53.70
2022-11-30T18:54:03.092Z,47.60
2022-11-30T18:56:31.885Z,50.30
2022-11-30T18:59:07.126Z,52.08
2022-11-30T19:01:33.680Z,50.75
2022-11-30T19:04:02.233Z,49.28
2022-11-30T19:06:29.784Z,47.88
2022-11-30T19:08:57.047Z,45.58
2022-11-30T19:11:23.754Z,48.65
2022-11-30T19:13:57.697Z,49.67
2022-11-30T19:16:24.959Z,52.58
2022-11-30T19:18:52.373Z,48.70
2022-11-30T19:21:20.698Z,53.22
2022-11-30T19:23:47.789Z,48.75
2022-11-30T19:26:14.808Z,48.03
2022-11-30T19:28:43.155Z,55.25
2022-11-30T19:31:14.733Z,47.47
2022-11-30T19:33:42.676Z,47.37
2022-11-30T19:36:14.099Z,51.53
2022-11-30T19:38:40.553Z,48.83
2022-11-30T19:41:09.177Z,50.92
2022-11-30T19:43:36.034Z,49.47
2022-11-30T19:46:06.627Z,46.53
2022-11-30T19:48:33.843Z,46.60
2022-11-30T19:51:04.506Z,44.60
2022-11-30T19:53:30.864Z,44.33
2022-11-30T19:55:57.266Z,44.10
2022-11-30T19:58:23.707Z,49.15
2022-11-30T20:00:50.172Z,45.03
2022-11-30T20:03:16.861Z,45.75
2022-11-30T20:05:49.421Z,45.33
2022-11-30T20:10:42.150Z,42.55
2022-11-30T20:13:11.907Z,43.13
2022-11-30T20:15:39.382Z,44.95
2022-11-30T20:18:06.829Z,44.35
2022-11-30T20:20:33.860Z,46.72
2022-11-30T20:23:00.632Z,43.53
2022-11-30T20:25:29.372Z,43.45
2022-11-30T20:27:55.752Z,45.50
2022-11-30T20:30:22.123Z,46.30
2022-11-30T20:32:48.532Z,46.15
2022-11-30T20:35:14.940Z,43.67
2022-11-30T20:37:41.345Z,46.20
2022-11-30T20:40:08.494Z,45.00
2022-11-30T20:42:34.861Z,44.25
2022-11-30T20:45:01.265Z,43.03
2022-11-30T20:47:32.082Z,45.45
2022-11-30T20:50:01.657Z,43.47
2022-11-30T20:52:28.240Z,41.78
2022-11-30T20:54:54.639Z,43.60
2022-11-30T20:57:21.024Z,43.75
2022-11-30T20:59:47.430Z,43.08
2022-11-30T21:02:13.960Z,43.40
2022-11-30T21:04:40.416Z,41.10
2022-11-30T21:07:06.819Z,41.83
2022-11-30T21:09:33.195Z,43.67
2022-11-30T21:11:59.573Z,45.35
2022-11-30T21:14:25.991Z,44.28
2022-11-30T21:16:52.820Z,43.83
2022-11-30T21:19:19.229Z,44.67
2022-11-30T21:21:45.668Z,45.13
2022-11-30T21:24:12.088Z,42.60
2022-11-30T21:26:40.606Z,44.20
2022-11-30T21:29:13.844Z,41.80
2022-11-30T21:31:40.452Z,44.78
2022-11-30T21:34:06.900Z,42.63
2022-11-30T21:36:33.287Z,44.78
2022-11-30T21:39:05.642Z,43.13
2022-11-30T21:41:34.338Z,44.97
2022-11-30T21:44:00.790Z,40.72
2022-11-30T21:46:27.302Z,41.75
2022-11-30T21:48:53.761Z,42.55
2022-11-30T21:51:22.722Z,40.53
2022-11-30T21:54:09.646Z,40.47
2022-11-30T21:56:37.869Z,39.65
2022-11-30T21:59:05.981Z,36.85
2022-11-30T22:01:34.890Z,35.58
2022-11-30T22:04:03.171Z,37.20
2022-11-30T22:06:31.384Z,36.80
2022-11-30T22:09:03.239Z,33.13
2022-11-30T22:11:30.758Z,36.08
2022-11-30T22:13:57.260Z,33.50
2022-11-30T22:16:25.105Z,33.38
2022-11-30T22:18:53.191Z,31.73
2022-11-30T22:21:21.823Z,30.63
2022-11-30T22:23:59.346Z,33.22
2022-11-30T22:26:28.009Z,33.08
2022-11-30T22:28:58.414Z,32.75
2022-11-30T22:31:26.973Z,31.10
2022-11-30T22:33:53.583Z,32.80
2022-11-30T22:36:22.789Z,32.60
2022-11-30T22:39:00.165Z,30.35
2022-11-30T22:41:27.362Z,30.88
2022-11-30T22:43:54.710Z,32.42
2022-11-30T22:46:24.479Z,33.33
2022-11-30T22:48:51.171Z,33.97
2022-11-30T22:51:20.613Z,34.75
2022-11-30T22:53:47.532Z,35.50
2022-11-30T22:56:19.410Z,35.50
2022-11-30T22:58:47.416Z,36.15
2022-11-30T23:01:18.638Z,35.72
2022-11-30T23:03:46.059Z,38.15
2022-11-30T23:06:15.342Z,35.40
2022-11-30T23:08:42.745Z,35.83
2022-11-30T23:11:11.797Z,37.30
2022-11-30T23:13:38.941Z,37.50
2022-11-30T23:16:06.325Z,36.33
2022-11-30T23:18:38.383Z,35.17
2022-11-30T23:21:10.732Z,35.10
2022-11-30T23:23:37.125Z,35.20
2022-11-30T23:26:09.802Z,35.83
2022-11-30T23:28:36.233Z,35.75
2022-11-30T23:31:03.601Z,34.25
2022-11-30T23:33:30.051Z,33.42
2022-11-30T23:35:56.448Z,34.70
2022-11-30T23:38:22.837Z,33.92
2022-11-30T23:40:49.214Z,32.25
2022-11-30T23:43:15.688Z,35.40
2022-11-30T23:45:42.118Z,37.85
2022-11-30T23:48:10.199Z,37.00
2022-11-30T23:50:37.014Z,38.45
2022-11-30T23:53:03.437Z,38.67
2022-11-30T23:55:29.891Z,38.83
2022-11-30T23:57:56.258Z,37.50
